Time;durP1;ratioP1;P1;durP2;ratioP2;P2;SDS_P1;SDS_P2;PMS_P1;PMS_P2;Temp;Humidity;BMP_temperature;BMP_pressure;BME280_temperature;BME280_humidity;BME280_pressure;Samples;Min_cycle;Max_cycle;Signal;HPM_P1;HPM_P2
2021/03/11 00:01:41;;;;;;;36.50;18.87;;;;;;;-4.75;69.82;100768.14;1755049;79;21608;-48
2021/03/11 00:04:09;;;;;;;47.38;23.20;;;;;;;-4.79;69.95;100764.56;1756240;79;20998;-48
2021/03/11 00:09:04;;;;;;;36.05;19.17;;;;;;;-4.76;70.05;100772.52;1786208;78;22848;-49
2021/03/11 00:11:31;;;;;;;40.63;19.40;;;;;;;-4.81;70.08;100770.19;1747682;80;21639;-49
2021/03/11 00:14:00;;;;;;;32.08;16.17;;;;;;;-4.81;70.04;100774.12;1733539;80;21394;-49
2021/03/11 00:16:28;;;;;;;38.63;18.87;;;;;;;-4.82;70.07;100772.35;1733667;80;21575;-49
2021/03/11 00:18:57;;;;;;;35.35;16.55;;;;;;;-4.84;70.12;100767.48;1735019;80;21096;-50
2021/03/11 00:21:25;;;;;;;35.23;16.23;;;;;;;-4.87;70.15;100763.87;1734176;80;21707;-48
2021/03/11 00:23:53;;;;;;;36.20;17.42;;;;;;;-4.87;70.18;100762.55;1700205;81;21644;-49
2021/03/11 00:26:21;;;;;;;33.63;17.60;;;;;;;-4.90;70.17;100762.45;1703740;81;21214;-50
2021/03/11 00:28:48;;;;;;;38.55;19.32;;;;;;;-4.92;70.17;100761.10;1704008;82;21049;-49
2021/03/11 00:31:16;;;;;;;39.08;19.00;;;;;;;-4.91;70.21;100756.73;1669422;83;21068;-50
2021/03/11 00:33:44;;;;;;;42.90;20.20;;;;;;;-4.91;70.32;100753.67;1669173;83;21147;-49
2021/03/11 00:36:14;;;;;;;43.38;20.75;;;;;;;-4.92;70.45;100751.90;1668530;83;21242;-49
2021/03/11 00:38:42;;;;;;;47.03;21.48;;;;;;;-4.94;70.66;100754.92;1667249;83;21314;-47
2021/03/11 00:41:11;;;;;;;49.73;23.15;;;;;;;-4.94;70.71;100750.97;1669116;83;21129;-47
2021/03/11 00:43:39;;;;;;;45.60;22.62;;;;;;;-4.95;70.75;100757.09;1670359;83;21131;-48
2021/03/11 00:46:06;;;;;;;47.15;23.70;;;;;;;-4.97;70.83;100761.39;1670308;83;21923;-46
2021/03/11 00:48:35;;;;;;;46.00;22.45;;;;;;;-4.97;70.88;100761.39;1670908;83;21145;-48
2021/03/11 00:51:03;;;;;;;56.18;25.70;;;;;;;-4.96;70.88;100760.54;1670050;83;22418;-48
2021/03/11 00:53:31;;;;;;;56.02;25.25;;;;;;;-4.97;70.95;100754.82;1670548;83;21632;-46
2021/03/11 00:55:59;;;;;;;56.95;27.20;;;;;;;-4.99;71.10;100753.89;1671269;83;21010;-46
2021/03/11 00:58:27;;;;;;;54.58;25.60;;;;;;;-5.00;71.32;100749.48;1667592;83;21128;-48
2021/03/11 01:00:55;;;;;;;75.37;33.30;;;;;;;-5.00;71.54;100753.44;1670149;83;21260;-50
2021/03/11 01:03:28;;;;;;;59.98;26.97;;;;;;;-5.03;71.58;100734.50;1666672;83;22121;-51
2021/03/11 01:05:58;;;;;;;62.35;30.70;;;;;;;-5.01;71.78;100730.59;1668326;83;21108;-48
2021/03/11 01:08:30;;;;;;;57.38;27.75;;;;;;;-5.02;72.06;100730.12;1672608;83;21590;-48
2021/03/11 01:10:58;;;;;;;55.80;27.05;;;;;;;-5.03;72.33;100728.34;1695792;83;21028;-49
2021/03/11 01:13:26;;;;;;;61.28;26.12;;;;;;;-5.05;72.56;100729.63;1695538;83;21637;-49
2021/03/11 01:15:54;;;;;;;54.42;25.20;;;;;;;-5.08;72.91;100733.91;1691993;83;21402;-49
2021/03/11 01:18:23;;;;;;;52.73;25.72;;;;;;;-5.12;73.24;100722.39;1694043;82;21138;-49
2021/03/11 01:20:51;;;;;;;47.88;24.50;;;;;;;-5.15;73.27;100726.70;1691421;83;21558;-49
2021/03/11 01:23:19;;;;;;;54.55;26.00;;;;;;;-5.18;73.44;100732.74;1692612;83;21181;-50
2021/03/11 01:25:47;;;;;;;52.38;27.30;;;;;;;-5.22;73.63;100732.61;1687692;83;21156;-49
2021/03/11 01:28:15;;;;;;;57.60;25.60;;;;;;;-5.25;73.67;100733.42;1692137;83;21404;-48
2021/03/11 01:30:43;;;;;;;58.20;26.87;;;;;;;-5.25;73.71;100737.80;1693772;83;21142;-49
2021/03/11 01:33:11;;;;;;;54.93;26.50;;;;;;;-5.28;73.78;100734.20;1688523;83;21031;-56
2021/03/11 01:35:39;;;;;;;62.62;26.65;;;;;;;-5.32;73.83;100730.16;1689577;83;21174;-48
2021/03/11 01:38:07;;;;;;;55.30;27.30;;;;;;;-5.35;73.97;100728.74;1688871;83;21170;-49
2021/03/11 01:40:35;;;;;;;55.60;26.73;;;;;;;-5.38;74.12;100737.45;1688223;83;21354;-50
2021/03/11 01:43:04;;;;;;;58.00;27.22;;;;;;;-5.41;74.22;100730.77;1689496;82;21599;-49
2021/03/11 01:45:31;;;;;;;49.55;23.07;;;;;;;-5.45;74.35;100731.52;1692573;83;21750;-50
2021/03/11 01:48:00;;;;;;;53.85;27.07;;;;;;;-5.46;74.58;100728.42;1699646;83;21535;-49
2021/03/11 01:50:29;;;;;;;54.60;25.80;;;;;;;-5.47;74.55;100737.16;1693209;83;21152;-49
2021/03/11 01:52:57;;;;;;;52.05;25.95;;;;;;;-5.48;74.58;100739.33;1688619;83;21381;-48
2021/03/11 01:55:27;;;;;;;49.38;23.90;;;;;;;-5.47;74.64;100738.47;1665013;83;21161;-48
2021/03/11 01:57:56;;;;;;;68.97;30.82;;;;;;;-5.46;74.64;100740.67;1694744;83;21150;-48
2021/03/11 02:00:24;;;;;;;65.10;29.20;;;;;;;-5.47;74.61;100734.53;1690442;83;21198;-49
2021/03/11 02:02:52;;;;;;;82.57;33.45;;;;;;;-5.45;74.58;100740.72;1696967;83;21642;-50
2021/03/11 02:05:21;;;;;;;68.80;33.40;;;;;;;-5.42;74.56;100740.82;1663837;83;21955;-48
2021/03/11 02:07:50;;;;;;;77.75;32.90;;;;;;;-5.39;74.38;100740.00;1687585;83;21169;-49
2021/03/11 02:10:22;;;;;;;68.97;30.90;;;;;;;-5.42;74.32;100738.19;1717887;80;21173;-49
2021/03/11 02:13:14;;;;;;;64.40;28.12;;;;;;;-5.46;74.36;100738.94;1695740;82;21027;-49
2021/03/11 02:16:14;;;;;;;55.25;25.95;;;;;;;-5.47;74.62;100742.41;1803428;78;22914;-48
2021/03/11 02:19:08;;;;;;;54.45;24.25;;;;;;;-5.58;74.93;100746.45;1753715;79;21690;-49
2021/03/11 02:21:48;;;;;;;50.03;22.62;;;;;;;-5.63;75.10;100750.68;1699485;80;22104;-48
2021/03/11 02:24:59;;;;;;;47.85;21.97;;;;;;;-5.65;75.37;100757.60;1740907;80;21389;-49
2021/03/11 02:28:25;;;;;;;46.95;22.45;;;;;;;-5.63;75.52;100748.05;1794708;76;22945;-50
2021/03/11 02:30:57;;;;;;;54.08;25.00;;;;;;;-5.74;75.67;100757.34;1749606;81;21181;-49
2021/03/11 02:33:26;;;;;;;53.50;25.52;;;;;;;-5.84;75.86;100749.16;1758108;79;21303;-49
2021/03/11 02:35:54;;;;;;;54.60;25.45;;;;;;;-5.86;76.37;100756.11;1756959;80;21122;-49
2021/03/11 02:38:22;;;;;;;61.02;28.55;;;;;;;-5.92;76.64;100755.92;1734046;80;20978;-49
2021/03/11 02:40:50;;;;;;;55.52;27.50;;;;;;;-5.97;76.99;100757.50;1757067;79;20981;-49
2021/03/11 02:43:18;;;;;;;59.70;27.75;;;;;;;-6.03;77.22;100763.88;1764814;79;21021;-50
2021/03/11 02:45:46;;;;;;;55.23;26.85;;;;;;;-6.09;77.48;100762.37;1757547;79;21266;-50
2021/03/11 02:48:14;;;;;;;58.15;27.65;;;;;;;-6.13;77.75;100766.62;1756268;80;20985;-49
2021/03/11 02:50:42;;;;;;;65.87;29.15;;;;;;;-6.16;78.01;100765.64;1762130;79;20986;-50
2021/03/11 02:53:11;;;;;;;61.15;27.17;;;;;;;-6.19;78.28;100755.03;1758527;79;20970;-49
2021/03/11 02:55:41;;;;;;;55.80;25.70;;;;;;;-6.22;78.41;100757.57;1742527;80;21561;-49
2021/03/11 02:58:11;;;;;;;53.85;23.90;;;;;;;-6.23;78.45;100753.13;1760248;79;22843;-50
2021/03/11 03:00:40;;;;;;;50.52;23.47;;;;;;;-6.22;78.57;100757.57;1758510;79;21029;-49
2021/03/11 03:03:09;;;;;;;44.55;23.65;;;;;;;-6.20;78.75;100754.56;1760700;79;21064;-49
2021/03/11 03:05:37;;;;;;;45.67;21.65;;;;;;;-6.19;78.86;100757.66;1764805;79;21253;-50
2021/03/11 03:08:06;;;;;;;46.13;21.52;;;;;;;-6.18;78.90;100756.81;1762030;79;21695;-50
2021/03/11 03:10:35;;;;;;;45.90;22.32;;;;;;;-6.17;78.87;100753.37;1759591;79;21413;-50
2021/03/11 03:13:14;;;;;;;48.65;23.65;;;;;;;-6.15;78.83;100754.30;1762218;79;21040;-49
2021/03/11 03:15:42;;;;;;;57.58;24.35;;;;;;;-6.14;78.76;100750.83;1760654;79;21630;-49
2021/03/11 03:18:17;;;;;;;55.20;25.40;;;;;;;-6.14;78.79;100750.83;1761012;79;21029;-49
2021/03/11 03:20:47;;;;;;;54.58;26.75;;;;;;;-6.12;78.76;100749.16;1760373;79;21207;-50
2021/03/11 03:23:15;;;;;;;53.03;27.23;;;;;;;-6.13;78.68;100748.66;1759664;79;21328;-50
2021/03/11 03:25:46;;;;;;;57.58;27.05;;;;;;;-6.13;78.58;100746.03;1760618;78;21712;-50
2021/03/11 03:28:14;;;;;;;60.63;26.60;;;;;;;-6.14;78.58;100753.45;1780015;78;20984;-49
2021/03/11 03:30:42;;;;;;;82.97;32.53;;;;;;;-6.14;78.57;100753.45;1776104;78;21615;-50
2021/03/11 03:33:12;;;;;;;77.67;34.18;;;;;;;-6.15;78.55;100752.56;1777278;78;21718;-49
2021/03/11 03:35:40;;;;;;;96.50;40.88;;;;;;;-6.15;78.47;100752.56;1779110;78;21190;-50
2021/03/11 03:38:08;;;;;;;122.33;50.38;;;;;;;-6.17;78.44;100750.74;1778560;78;21163;-50
2021/03/11 03:40:36;;;;;;;127.20;53.17;;;;;;;-6.19;78.38;100753.72;1777172;78;21036;-51
2021/03/11 03:43:24;;;;;;;138.77;56.10;;;;;;;-6.21;78.38;100751.05;1776890;78;21608;-49
2021/03/11 03:46:13;;;;;;;156.28;62.75;;;;;;;-6.18;78.38;100751.55;1803689;76;23344;-49
2021/03/11 03:48:47;;;;;;;145.15;59.77;;;;;;;-6.25;78.37;100756.14;1763160;80;20974;-49
2021/03/11 03:51:18;;;;;;;99.55;42.98;;;;;;;-6.26;78.37;100758.30;1763793;80;21196;-48
2021/03/11 03:53:52;;;;;;;112.97;46.77;;;;;;;-6.23;78.53;100761.01;1763200;80;21017;-49
2021/03/11 03:56:27;;;;;;;128.27;49.85;;;;;;;-6.18;78.52;100759.43;1763667;80;22257;-48
2021/03/11 03:59:18;;;;;;;137.20;55.15;;;;;;;-6.14;78.44;100761.33;1765680;80;21203;-48
2021/03/11 04:01:46;;;;;;;153.07;64.92;;;;;;;-6.12;78.28;100759.66;1768840;80;20939;-49
2021/03/11 04:04:15;;;;;;;176.65;67.35;;;;;;;-6.12;78.22;100760.98;1770893;80;21191;-49
2021/03/11 04:06:43;;;;;;;183.18;72.82;;;;;;;-6.10;78.20;100755.34;1743110;80;21002;-48
2021/03/11 04:09:13;;;;;;;158.82;64.07;;;;;;;-6.09;77.98;100759.74;1770960;79;20953;-50
2021/03/11 04:11:45;;;;;;;156.32;64.25;;;;;;;-6.11;77.96;100756.19;1772663;80;21115;-49
2021/03/11 04:14:12;;;;;;;152.32;62.43;;;;;;;-6.11;77.91;100756.19;1771933;80;26415;-49
2021/03/11 04:16:41;;;;;;;153.32;64.03;;;;;;;-6.09;77.85;100757.12;1769735;80;21326;-52
2021/03/11 04:19:10;;;;;;;115.30;53.73;;;;;;;-6.07;77.73;100765.95;1767202;79;21131;-49
2021/03/11 04:21:40;;;;;;;136.07;57.08;;;;;;;-6.05;77.71;100761.64;1772726;80;21001;-48
2021/03/11 04:24:09;;;;;;;133.52;53.58;;;;;;;-6.04;77.60;100768.66;1771813;79;21109;-50
2021/03/11 04:26:37;;;;;;;125.25;50.15;;;;;;;-6.03;77.49;100767.81;1773599;79;21030;-49
2021/03/11 04:29:06;;;;;;;133.32;56.00;;;;;;;-6.02;77.43;100775.27;1773214;79;22204;-49
2021/03/11 04:31:34;;;;;;;127.05;50.10;;;;;;;-5.99;77.36;100772.33;1773782;80;21052;-50
2021/03/11 04:34:02;;;;;;;136.07;55.67;;;;;;;-5.98;77.29;100768.86;1773678;79;21541;-49
2021/03/11 04:36:31;;;;;;;129.42;53.50;;;;;;;-5.98;77.19;100768.86;1772351;80;21163;-49
2021/03/11 04:38:59;;;;;;;112.85;48.52;;;;;;;-5.98;77.17;100763.61;1772370;80;21178;-50
2021/03/11 04:41:27;;;;;;;137.77;57.65;;;;;;;-5.95;77.19;100771.59;1741359;80;21674;-50
2021/03/11 04:43:55;;;;;;;116.42;49.93;;;;;;;-5.96;77.02;100769.82;1772065;79;21524;-49
2021/03/11 04:46:23;;;;;;;118.47;49.50;;;;;;;-5.97;77.06;100773.27;1767994;81;21132;-49
2021/03/11 04:48:52;;;;;;;140.50;56.80;;;;;;;-5.96;77.06;100772.45;1763807;81;21699;-48
2021/03/11 04:51:20;;;;;;;154.00;62.75;;;;;;;-5.94;76.88;100767.23;1711958;81;21116;-49
2021/03/11 04:53:48;;;;;;;218.80;78.37;;;;;;;-5.98;76.78;100760.98;1767569;81;22181;-50
2021/03/11 04:56:16;;;;;;;278.90;91.97;;;;;;;-6.01;76.77;100768.78;1739381;81;21219;-50
2021/03/11 04:58:45;;;;;;;333.27;103.90;;;;;;;-6.04;76.84;100776.54;1738062;81;21152;-49
2021/03/11 05:01:14;;;;;;;240.40;83.15;;;;;;;-6.07;76.91;100779.98;1760417;80;21579;-50
2021/03/11 05:03:45;;;;;;;242.93;83.33;;;;;;;-6.08;76.92;100782.10;1758047;81;21105;-50
2021/03/11 05:06:13;;;;;;;215.43;76.17;;;;;;;-6.09;76.94;100779.44;1754644;80;21367;-50
2021/03/11 05:08:41;;;;;;;198.62;73.45;;;;;;;-6.08;76.97;100782.52;1755664;80;21219;-51
2021/03/11 05:11:15;;;;;;;205.75;71.28;;;;;;;-6.06;77.05;100782.17;1755277;81;21495;-53
2021/03/11 05:13:44;;;;;;;179.27;67.67;;;;;;;-6.04;77.03;100787.05;1732740;81;21513;-52
2021/03/11 05:16:12;;;;;;;174.30;69.65;;;;;;;-6.02;77.00;100789.28;1753918;80;21180;-52
2021/03/11 05:18:40;;;;;;;158.52;66.42;;;;;;;-6.00;76.96;100795.50;1757280;81;21668;-54
2021/03/11 05:21:09;;;;;;;164.15;65.10;;;;;;;-5.98;76.93;100788.98;1756823;81;21329;-54
2021/03/11 05:23:38;;;;;;;148.75;62.70;;;;;;;-5.97;76.90;100784.19;1753530;81;21009;-52
2021/03/11 05:26:08;;;;;;;134.90;62.35;;;;;;;-5.95;76.92;100783.41;1755148;80;21152;-53
2021/03/11 05:28:37;;;;;;;111.17;47.98;;;;;;;-5.91;76.94;100793.16;1756093;80;21170;-54
2021/03/11 05:31:05;;;;;;;151.68;66.15;;;;;;;-5.87;76.89;100791.07;1760628;80;22475;-54
2021/03/11 05:33:34;;;;;;;143.00;62.67;;;;;;;-5.84;76.81;100788.98;1759755;80;21061;-53
2021/03/11 05:36:04;;;;;;;166.55;72.80;;;;;;;-5.81;76.77;100791.27;1761776;81;21006;-52
2021/03/11 05:38:33;;;;;;;153.42;69.47;;;;;;;-5.73;76.77;100801.15;1734063;81;21045;-55
2021/03/11 05:41:02;;;;;;;139.35;61.85;;;;;;;-5.64;76.74;100809.33;1760133;79;21010;-54
2021/03/11 05:43:30;;;;;;;157.57;69.65;;;;;;;-5.58;76.54;100809.09;1760783;79;21550;-55
2021/03/11 05:45:58;;;;;;;135.45;58.85;;;;;;;-5.48;76.43;100818.59;1760820;80;21220;-57
2021/03/11 05:48:35;;;;;;;112.70;48.50;;;;;;;-5.37;76.26;100806.67;1859506;74;20974;-55
2021/03/11 05:51:04;;;;;;;130.37;53.38;;;;;;;-5.38;75.93;100813.67;1812228;77;20966;-52
2021/03/11 05:53:32;;;;;;;154.85;58.10;;;;;;;-5.35;75.57;100809.80;1778168;78;21359;-55
2021/03/11 05:56:01;;;;;;;144.00;55.73;;;;;;;-5.30;75.32;100813.89;1773272;78;21030;-54
2021/03/11 05:58:31;;;;;;;140.50;50.05;;;;;;;-5.24;75.11;100810.55;1776461;78;21033;-53
2021/03/11 06:01:02;;;;;;;142.68;55.83;;;;;;;-5.18;74.79;100810.73;1778487;78;20954;-53
2021/03/11 06:03:33;;;;;;;137.95;50.48;;;;;;;-5.12;74.39;100816.17;1775035;78;22085;-54
2021/03/11 06:06:02;;;;;;;179.82;66.02;;;;;;;-5.07;74.07;100811.95;1778893;78;22025;-54
2021/03/11 06:08:30;;;;;;;154.07;59.35;;;;;;;-5.01;73.91;100814.36;1778685;79;21099;-55
2021/03/11 06:10:59;;;;;;;147.02;55.30;;;;;;;-4.94;73.62;100812.79;1776875;79;21113;-55
2021/03/11 06:13:27;;;;;;;142.55;53.95;;;;;;;-4.87;73.49;100816.05;1778416;78;21108;-57
2021/03/11 06:16:03;;;;;;;116.33;46.58;;;;;;;-4.80;73.16;100823.27;1766639;79;22142;-56
2021/03/11 06:18:32;;;;;;;112.40;44.13;;;;;;;-4.73;72.57;100827.42;1776512;79;21127;-55
2021/03/11 06:21:01;;;;;;;111.72;45.33;;;;;;;-4.67;72.01;100821.89;1778616;78;21655;-54
2021/03/11 06:23:29;;;;;;;110.75;42.35;;;;;;;-4.61;71.81;100821.17;1776075;78;21672;-54
2021/03/11 06:25:59;;;;;;;118.25;44.73;;;;;;;-4.56;71.51;100828.78;1774804;79;21128;-54
2021/03/11 06:28:49;;;;;;;89.07;39.83;;;;;;;-4.50;71.48;100819.73;1779109;79;21478;-56
2021/03/11 06:31:33;;;;;;;96.37;39.18;;;;;;;-4.43;71.13;100824.30;1781968;78;21450;-54
2021/03/11 06:34:01;;;;;;;81.40;33.95;;;;;;;-4.35;70.89;100829.36;1777095;78;20962;-56
2021/03/11 06:36:31;;;;;;;80.75;34.95;;;;;;;-4.27;70.47;100829.13;1778814;78;21212;-58
2021/03/11 06:38:59;;;;;;;66.47;30.65;;;;;;;-4.20;70.02;100829.32;1784143;78;21384;-54
2021/03/11 06:41:44;;;;;;;69.97;31.85;;;;;;;-4.12;69.42;100833.03;1776779;78;21101;-54
2021/03/11 06:44:12;;;;;;;75.78;31.27;;;;;;;-4.04;69.32;100831.50;1781306;78;21435;-54
2021/03/11 06:46:59;;;;;;;58.90;27.10;;;;;;;-3.91;68.73;100836.22;1773554;79;21160;-55
2021/03/11 06:49:35;;;;;;;61.60;28.15;;;;;;;-3.74;67.81;100837.52;1803446;76;22705;-57
2021/03/11 06:52:15;;;;;;;72.35;31.90;;;;;;;-3.70;67.20;100834.13;1763658;79;21617;-54
2021/03/11 06:54:58;;;;;;;69.27;32.58;;;;;;;-3.61;66.82;100835.22;1753989;79;22273;-55
2021/03/11 06:57:40;;;;;;;71.92;30.32;;;;;;;-3.45;66.49;100836.94;1853340;74;22682;-58
2021/03/11 07:00:24;;;;;;;70.45;30.70;;;;;;;-3.41;66.18;100836.55;1778232;80;21057;-60
2021/03/11 07:02:54;;;;;;;71.55;30.45;;;;;;;-3.34;65.50;100838.50;1695483;81;21350;-56
2021/03/11 07:05:25;;;;;;;54.73;25.40;;;;;;;-3.25;65.00;100832.12;1732574;81;21535;-56
2021/03/11 07:08:08;;;;;;;45.95;21.73;;;;;;;-3.16;64.75;100837.59;1732174;81;21672;-63
2021/03/11 07:10:36;;;;;;;34.80;16.62;;;;;;;-3.06;63.87;100832.09;1732542;81;21577;-55
2021/03/11 07:13:04;;;;;;;35.38;15.75;;;;;;;-2.96;62.85;100839.79;1733189;81;21309;-53
2021/03/11 07:15:35;;;;;;;35.85;15.50;;;;;;;-2.88;62.22;100840.83;1731891;81;22049;-56
2021/03/11 07:18:07;;;;;;;34.23;15.50;;;;;;;-2.81;62.05;100838.80;1731587;81;21606;-57
2021/03/11 07:20:37;;;;;;;32.45;15.32;;;;;;;-2.73;61.96;100838.52;1729477;81;20975;-57
2021/03/11 07:23:14;;;;;;;35.17;15.00;;;;;;;-2.62;61.09;100836.53;1732455;81;21013;-61
2021/03/11 07:25:46;;;;;;;34.15;15.68;;;;;;;-2.54;60.02;100837.59;1733456;81;21001;-58
2021/03/11 07:28:29;;;;;;;38.55;16.10;;;;;;;-2.46;59.20;100834.66;1731442;81;21351;-59
2021/03/11 07:31:00;;;;;;;33.73;15.32;;;;;;;-2.39;58.56;100832.63;1732243;81;21569;-51
2021/03/11 07:33:30;;;;;;;28.87;14.18;;;;;;;-2.31;58.53;100835.39;1733325;81;20993;-54
2021/03/11 07:36:00;;;;;;;33.20;14.65;;;;;;;-2.24;57.93;100836.84;1732914;81;21093;-55
2021/03/11 07:38:29;;;;;;;35.00;16.07;;;;;;;-2.15;57.74;100843.64;1732463;81;21012;-57
2021/03/11 07:41:01;;;;;;;42.13;15.70;;;;;;;-2.07;57.17;100844.23;1732534;81;22201;-58
2021/03/11 07:43:30;;;;;;;52.30;18.42;;;;;;;-2.02;57.31;100854.02;1732558;81;21139;-57
2021/03/11 07:46:05;;;;;;;46.58;18.57;;;;;;;-1.97;57.16;100847.47;1732742;81;21276;-59
2021/03/11 07:48:34;;;;;;;31.87;16.20;;;;;;;-1.91;57.35;100847.61;1733000;81;21128;-53
2021/03/11 07:51:03;;;;;;;29.65;15.20;;;;;;;-1.84;56.81;100841.55;1733498;81;21001;-53
2021/03/11 07:53:31;;;;;;;32.40;13.10;;;;;;;-1.77;56.18;100851.36;1730245;81;21378;-53
2021/03/11 07:56:00;;;;;;;25.77;13.83;;;;;;;-1.73;55.46;100850.56;1733179;81;21124;-60
2021/03/11 07:58:29;;;;;;;25.35;11.53;;;;;;;-1.69;55.67;100849.75;1700766;81;21150;-55
2021/03/11 08:00:57;;;;;;;35.08;13.70;;;;;;;-1.62;55.55;100843.69;1732262;81;21245;-54
2021/03/11 08:03:28;;;;;;;26.07;11.85;;;;;;;-1.59;54.75;100846.41;1700599;80;21134;-57
2021/03/11 08:05:56;;;;;;;17.37;11.00;;;;;;;-1.53;54.55;100840.31;1694454;82;21388;-55
2021/03/11 08:08:28;;;;;;;25.05;13.05;;;;;;;-1.49;53.71;100842.16;1720502;80;21131;-55
2021/03/11 08:10:59;;;;;;;19.30;11.18;;;;;;;-1.45;54.01;100829.84;1742867;80;21455;-51
2021/03/11 08:13:33;;;;;;;23.05;12.33;;;;;;;-1.37;53.69;100840.13;1744954;80;20979;-58
2021/03/11 08:16:16;;;;;;;24.07;12.28;;;;;;;-1.26;53.43;100835.89;1744354;81;21144;-56
2021/03/11 08:18:44;;;;;;;28.47;13.28;;;;;;;-1.19;52.61;100835.10;1741476;80;21594;-54
2021/03/11 08:21:36;;;;;;;24.25;11.88;;;;;;;-1.22;52.13;100828.45;1742932;80;21675;-59
2021/03/11 08:24:29;;;;;;;58.17;17.77;;;;;;;-1.21;51.85;100827.58;1739458;80;21139;-58
2021/03/11 08:26:57;;;;;;;46.55;14.40;;;;;;;-1.22;51.78;100822.28;1743895;80;21175;-57
2021/03/11 08:29:32;;;;;;;35.05;13.95;;;;;;;-1.19;52.02;100820.55;1744169;81;21374;-60
2021/03/11 08:32:00;;;;;;;27.82;13.62;;;;;;;-1.11;51.89;100821.56;1745723;82;21376;-59
2021/03/11 08:34:36;;;;;;;24.52;12.47;;;;;;;-1.06;51.54;100814.58;1744418;81;21183;-53
2021/03/11 08:37:26;;;;;;;19.40;11.15;;;;;;;-1.06;50.78;100810.60;1743371;80;21142;-56
2021/03/11 08:39:54;;;;;;;21.05;11.65;;;;;;;-1.10;51.00;100816.72;1744360;81;21163;-58
2021/03/11 08:42:44;;;;;;;19.62;12.25;;;;;;;-1.11;51.06;100818.91;1719388;82;21560;-55
2021/03/11 08:45:37;;;;;;;22.55;11.45;;;;;;;-1.10;51.06;100814.06;1744728;81;21380;-50
2021/03/11 08:48:23;;;;;;;30.62;12.10;;;;;;;-1.00;50.82;100804.94;1825178;76;22740;-53
2021/03/11 08:50:54;;;;;;;53.78;15.75;;;;;;;-0.95;50.44;100811.19;1809545;77;21475;-53
2021/03/11 08:53:42;;;;;;;32.10;12.55;;;;;;;-0.91;50.51;100805.03;1758131;79;21191;-54
2021/03/11 08:56:22;;;;;;;27.10;10.43;;;;;;;-0.85;50.36;100797.20;1756631;79;21096;-57
2021/03/11 08:58:53;;;;;;;23.73;11.70;;;;;;;-0.82;49.75;100793.25;1759087;79;21120;-57
2021/03/11 09:01:55;;;;;;;48.65;14.95;;;;;;;-0.83;49.84;100788.39;1758105;79;21017;-60
2021/03/11 09:04:37;;;;;;;49.42;14.70;;;;;;;-0.81;50.14;100798.99;1758104;80;21576;-59
2021/03/11 09:07:32;;;;;;;34.63;12.28;;;;;;;-0.81;50.41;100791.05;1767233;79;21268;-53
2021/03/11 09:10:00;;;;;;;25.30;11.73;;;;;;;-0.77;50.36;100791.55;1755623;79;21546;-55
2021/03/11 09:12:41;;;;;;;24.63;10.68;;;;;;;-0.75;50.18;100797.73;1756797;79;21020;-55
2021/03/11 09:15:09;;;;;;;16.75;8.00;;;;;;;-0.69;49.96;100799.16;1756783;79;21108;-58
2021/03/11 09:17:39;;;;;;;15.90;8.98;;;;;;;-0.68;49.19;100794.31;1757588;79;21013;-58
2021/03/11 09:20:14;;;;;;;17.85;10.45;;;;;;;-0.72;49.16;100800.44;1759586;79;21402;-56
2021/03/11 09:22:51;;;;;;;13.45;8.25;;;;;;;-0.72;49.39;100802.20;1757127;79;20997;-53
2021/03/11 09:25:25;;;;;;;15.00;9.50;;;;;;;-0.63;49.25;100804.53;1759962;79;20977;-51
2021/03/11 09:27:55;;;;;;;17.95;10.10;;;;;;;-0.57;49.33;100796.66;1761164;79;21012;-56
2021/03/11 09:30:36;;;;;;;21.70;12.80;;;;;;;-0.50;49.32;100794.07;1759416;79;20998;-57
2021/03/11 09:33:23;;;;;;;21.33;10.90;;;;;;;-0.42;49.55;100797.71;1757306;79;21373;-55
2021/03/11 09:35:52;;;;;;;19.60;10.38;;;;;;;-0.32;49.10;100787.22;1758185;80;21159;-54
2021/03/11 09:38:25;;;;;;;18.60;9.95;;;;;;;-0.25;48.47;100782.87;1764354;79;20942;-62
2021/03/11 09:40:54;;;;;;;17.45;10.70;;;;;;;-0.22;47.88;100793.48;1755843;79;21080;-58
2021/03/11 09:43:30;;;;;;;15.90;9.35;;;;;;;-0.22;48.06;100784.20;1761991;79;20993;-57
2021/03/11 09:46:07;;;;;;;15.48;10.18;;;;;;;-0.20;48.12;100785.13;1759268;78;22125;-64
2021/03/11 09:48:43;;;;;;;16.57;10.18;;;;;;;-0.17;47.96;100786.47;1760404;79;21001;-54
2021/03/11 09:51:20;;;;;;;44.35;14.63;;;;;;;-0.11;48.09;100786.52;1758432;79;21528;-53
2021/03/11 09:53:56;;;;;;;39.63;14.30;;;;;;;-0.03;48.40;100787.94;1759087;79;20922;-56
2021/03/11 09:56:29;;;;;;;41.65;13.18;;;;;;;0.04;48.30;100792.85;1762268;79;21005;-53
2021/03/11 09:59:03;;;;;;;44.73;12.93;;;;;;;0.12;47.97;100793.83;1759126;79;21475;-59
2021/03/11 10:01:37;;;;;;;21.73;9.50;;;;;;;0.15;46.67;100788.53;1760819;79;21072;-59
2021/03/11 10:04:17;;;;;;;14.78;6.42;;;;;;;0.16;46.10;100789.89;1759204;78;21143;-62
2021/03/11 10:07:00;;;;;;;10.45;6.20;;;;;;;0.18;44.39;100776.63;1759037;78;21113;-52
2021/03/11 10:09:40;;;;;;;12.07;6.05;;;;;;;0.18;43.24;100781.94;1762330;79;21565;-61
2021/03/11 10:12:10;;;;;;;22.50;6.22;;;;;;;0.17;42.76;100773.54;1759274;79;20982;-59
2021/03/11 10:14:39;;;;;;;10.75;5.22;;;;;;;0.16;42.56;100781.02;1758708;79;21054;-54
2021/03/11 10:17:07;;;;;;;9.48;5.08;;;;;;;0.14;42.46;100784.11;1768239;78;21120;-61
2021/03/11 10:19:36;;;;;;;9.15;5.72;;;;;;;0.13;42.66;100774.38;1761221;79;21257;-60
2021/03/11 10:22:07;;;;;;;12.25;5.55;;;;;;;0.12;42.74;100780.56;1761442;79;21471;-60
2021/03/11 10:24:45;;;;;;;10.80;5.75;;;;;;;0.10;42.81;100784.95;1759962;78;22091;-58
2021/03/11 10:27:27;;;;;;;9.63;6.12;;;;;;;0.14;43.01;100781.45;1763378;78;21576;-58
2021/03/11 10:30:09;;;;;;;12.82;7.40;;;;;;;0.19;42.84;100779.73;1759617;78;21116;-58
2021/03/11 10:32:41;;;;;;;12.15;6.70;;;;;;;0.25;43.04;100771.81;1757451;80;21903;-56
2021/03/11 10:35:11;;;;;;;8.43;5.28;;;;;;;0.30;42.60;100774.51;1762921;79;20997;-60
2021/03/11 10:37:41;;;;;;;8.15;5.15;;;;;;;0.31;42.48;100762.58;1760031;78;21397;-58
2021/03/11 10:40:15;;;;;;;13.70;6.20;;;;;;;0.32;41.89;100758.16;1761531;78;21139;-55
2021/03/11 10:42:46;;;;;;;15.35;7.03;;;;;;;0.27;42.15;100768.77;1732644;80;21269;-52
2021/03/11 10:45:17;;;;;;;10.25;6.33;;;;;;;0.27;42.57;100759.48;1763308;79;20969;-52
2021/03/11 10:48:02;;;;;;;11.70;6.53;;;;;;;0.32;42.77;100757.75;1766947;78;21508;-51
2021/03/11 10:50:33;;;;;;;11.15;6.83;;;;;;;0.42;42.55;100756.91;1776674;78;22036;-57
2021/03/11 10:53:01;;;;;;;9.78;6.53;;;;;;;0.48;42.56;100750.34;1773078;78;21127;-51
2021/03/11 10:55:35;;;;;;;10.60;6.60;;;;;;;0.50;42.83;100752.55;1775858;78;21171;-60
2021/03/11 10:58:04;;;;;;;10.50;6.55;;;;;;;0.49;43.08;100745.48;1752241;79;21344;-56
2021/03/11 11:00:36;;;;;;;10.98;6.35;;;;;;;0.47;42.84;100741.91;1753881;79;20970;-53
2021/03/11 11:03:04;;;;;;;;;;;;;;;0.46;43.11;100734.83;1755896;79;21207;-58
2021/03/11 11:05:33;;;;;;;12.28;6.78;;;;;;;0.47;43.05;100736.59;1752235;80;20270;-60
2021/03/11 11:08:02;;;;;;;9.73;6.55;;;;;;;0.49;42.85;100732.20;1752137;79;21160;-63
2021/03/11 11:10:32;;;;;;;12.90;7.00;;;;;;;0.50;42.83;100735.75;1749818;80;21579;-62
2021/03/11 11:13:03;;;;;;;11.97;6.67;;;;;;;0.51;42.53;100725.13;1758163;79;21418;-54
2021/03/11 11:15:33;;;;;;;13.68;6.28;;;;;;;0.54;42.38;100713.66;1760493;79;21420;-54
2021/03/11 11:18:02;;;;;;;9.93;6.05;;;;;;;0.59;42.27;100712.37;1755832;79;21488;-53
2021/03/11 11:20:33;;;;;;;14.25;6.75;;;;;;;0.64;42.31;100703.95;1755510;80;21679;-53
2021/03/11 11:23:01;;;;;;;8.43;5.58;;;;;;;0.68;42.10;100698.68;1755930;79;20961;-56
2021/03/11 11:25:32;;;;;;;12.37;7.10;;;;;;;0.70;41.96;100707.55;1737946;80;21119;-56
2021/03/11 11:28:00;;;;;;;11.93;7.10;;;;;;;0.73;42.32;100706.67;1755270;79;21332;-56
2021/03/11 11:30:28;;;;;;;14.07;6.87;;;;;;;0.75;42.58;100699.62;1737568;80;21126;-56
2021/03/11 11:32:56;;;;;;;13.45;7.58;;;;;;;0.77;42.46;100701.83;1756586;80;21076;-55
2021/03/11 11:35:24;;;;;;;12.10;7.30;;;;;;;0.79;42.15;100700.06;1712318;81;20988;-57